Time;durP1;ratioP1;P1;durP2;ratioP2;P2;SDS_P1;SDS_P2;PMS_P1;PMS_P2;Temp;Humidity;BMP_temperature;BMP_pressure;BME280_temperature;BME280_humidity;BME280_pressure;Samples;Min_cycle;Max_cycle;Signal;HPM_P1;HPM_P2
2023/06/29 00:02:33;;;;;;;13.50;9.00;;;;;;;14.68;100.00;100496.53;222337;1262;139594;-87
2023/06/29 00:07:35;;;;;;;17.80;10.80;;;;;;;14.61;100.00;100500.44;222523;1263;137236;-86
2023/06/29 00:12:36;;;;;;;15.90;9.90;;;;;;;14.55;100.00;100502.67;221963;1264;139788;-86
2023/06/29 00:17:37;;;;;;;18.20;10.80;;;;;;;14.46;100.00;100501.29;222552;1264;138533;-87
2023/06/29 00:22:40;;;;;;;13.80;9.40;;;;;;;14.39;100.00;100496.25;222064;1263;140084;-86
2023/06/29 00:27:40;;;;;;;15.30;9.50;;;;;;;14.32;100.00;100499.13;222384;1266;139230;-88
2023/06/29 00:32:41;;;;;;;13.30;8.40;;;;;;;14.25;100.00;100497.80;222061;1266;139117;-87
2023/06/29 00:37:44;;;;;;;14.50;9.70;;;;;;;14.17;100.00;100498.10;222493;1263;138310;-87
2023/06/29 00:42:45;;;;;;;14.90;9.10;;;;;;;14.10;100.00;100497.96;221843;1264;140096;-87
2023/06/29 00:47:46;;;;;;;15.20;9.30;;;;;;;14.02;100.00;100501.52;222529;1263;138279;-86
2023/06/29 00:52:47;;;;;;;13.00;9.00;;;;;;;13.95;100.00;100499.17;222002;1263;139688;-86
2023/06/29 00:57:48;;;;;;;15.70;9.80;;;;;;;13.88;100.00;100494.60;222513;1263;138338;-85
2023/06/29 01:02:49;;;;;;;15.60;9.80;;;;;;;13.80;100.00;100495.71;222177;1264;139106;-87
2023/06/29 01:08:50;;;;;;;17.00;10.70;;;;;;;13.74;100.00;100494.61;222462;1262;138117;-86
2023/06/29 01:14:13;;;;;;;10.00;6.80;;;;;;;13.64;100.00;100488.77;222372;1263;364224;-86
2023/06/29 01:19:24;;;;;;;12.80;8.60;;;;;;;13.59;100.00;100488.46;221890;1266;140159;-86
2023/06/29 01:24:46;;;;;;;15.30;7.70;;;;;;;13.54;100.00;100485.61;222706;1263;138642;-87
2023/06/29 01:29:47;;;;;;;13.20;8.50;;;;;;;13.47;100.00;100482.52;222169;1263;139905;-88
2023/06/29 01:34:49;;;;;;;17.80;9.60;;;;;;;13.42;100.00;100484.83;222550;1264;138494;-88
2023/06/29 01:40:15;;;;;;;12.40;8.30;;;;;;;13.34;100.00;100481.50;221487;1267;139415;-87
2023/06/29 01:45:20;;;;;;;14.90;8.70;;;;;;;13.25;100.00;100482.98;222234;1267;107794;-87
2023/06/29 01:56:39;;;;;;;13.40;8.80;;;;;;;13.12;100.00;100490.08;222132;1267;138479;-88
2023/06/29 02:01:42;;;;;;;14.70;9.70;;;;;;;13.07;100.00;100490.77;221620;1269;139621;-90
2023/06/29 02:18:19;;;;;;;16.40;8.50;;;;;;;12.92;100.00;100484.55;222377;1266;138664;-88
2023/06/29 02:29:21;;;;;;;18.80;8.90;;;;;;;12.82;100.00;100484.84;221439;1269;139296;-88
2023/06/29 02:34:24;;;;;;;12.30;7.70;;;;;;;12.78;100.00;100486.02;221884;1269;138550;-88
2023/06/29 02:39:25;;;;;;;15.10;8.80;;;;;;;12.74;100.00;100491.45;221247;1267;139595;-87
2023/06/29 02:44:25;;;;;;;12.70;8.20;;;;;;;12.68;100.00;100489.92;221892;1266;138310;-88
2023/06/29 02:49:30;;;;;;;13.20;8.50;;;;;;;12.66;100.00;100497.81;221227;1269;140267;-88
2023/06/29 02:54:31;;;;;;;11.90;8.30;;;;;;;12.63;100.00;100497.88;221798;1267;139363;-88
2023/06/29 02:59:31;;;;;;;15.40;8.70;;;;;;;12.60;100.00;100500.39;221752;1266;139355;-88
2023/06/29 03:04:32;;;;;;;16.40;7.90;;;;;;;12.55;100.00;100501.01;222338;1266;138656;-88
2023/06/29 03:09:40;;;;;;;13.50;8.30;;;;;;;12.55;100.00;100505.19;222056;1264;140016;-86
2023/06/29 03:14:49;;;;;;;13.60;8.30;;;;;;;12.54;100.00;100504.39;222517;1266;95149;-88
2023/06/29 03:19:51;;;;;;;13.00;8.00;;;;;;;12.53;100.00;100503.28;221977;1265;140053;-86
2023/06/29 03:24:52;;;;;;;10.30;7.20;;;;;;;12.52;100.00;100507.45;222516;1266;138659;-87
2023/06/29 03:35:53;;;;;;;13.90;9.40;;;;;;;12.55;100.00;100511.11;221364;1272;137602;-87
2023/06/29 03:40:53;;;;;;;15.20;9.70;;;;;;;12.57;100.00;100507.08;221972;1266;140211;-87
2023/06/29 03:45:57;;;;;;;13.00;9.10;;;;;;;12.59;100.00;100514.67;222495;1266;139037;-88
2023/06/29 03:50:59;;;;;;;14.90;9.80;;;;;;;12.60;100.00;100510.33;222066;1264;140210;-87
2023/06/29 03:56:00;;;;;;;19.90;10.80;;;;;;;12.65;100.00;100512.71;222445;1264;138436;-85
2023/06/29 04:01:01;;;;;;;19.40;11.50;;;;;;;12.68;100.00;100512.49;221971;1266;139488;-87
2023/06/29 04:06:03;;;;;;;19.40;12.70;;;;;;;12.72;100.00;100514.63;222505;1262;139407;-85
2023/06/29 04:11:05;;;;;;;25.20;13.50;;;;;;;12.80;100.00;100518.54;221749;1264;140378;-88
2023/06/29 04:16:06;;;;;;;21.10;14.40;;;;;;;12.89;100.00;100520.92;222561;1265;138959;-87
2023/06/29 04:21:10;;;;;;;21.60;12.40;;;;;;;12.96;100.00;100521.28;222135;1264;140589;-88
2023/06/29 04:26:10;;;;;;;19.90;12.90;;;;;;;13.05;100.00;100521.32;222652;1266;138493;-87
2023/06/29 04:37:09;;;;;;;20.70;13.30;;;;;;;13.27;100.00;100521.21;222335;1263;138987;-87
2023/06/29 04:48:28;;;;;;;24.10;13.00;;;;;;;13.49;100.00;100532.69;221901;1267;138999;-88
2023/06/29 05:11:30;;;;;;;24.00;12.60;;;;;;;14.20;100.00;100529.04;220738;1270;140453;-87
2023/06/29 05:16:38;;;;;;;17.00;11.70;;;;;;;14.44;100.00;100524.40;221148;1270;138648;-87
2023/06/29 05:21:40;;;;;;;20.90;13.10;;;;;;;14.78;100.00;100524.89;221578;1264;140322;-88
2023/06/29 05:26:41;;;;;;;17.50;10.30;;;;;;;15.22;100.00;100524.44;222702;1264;95127;-87
2023/06/29 05:31:43;;;;;;;19.10;10.90;;;;;;;15.80;100.00;100526.39;221702;1263;141441;-87
2023/06/29 05:36:45;;;;;;;19.60;9.50;;;;;;;16.46;100.00;100528.06;222299;1266;138677;-87
2023/06/29 05:41:56;;;;;;;14.50;8.60;;;;;;;17.12;100.00;100531.45;221710;1264;140053;-87
2023/06/29 05:46:57;;;;;;;16.40;7.50;;;;;;;17.90;100.00;100534.23;222155;1264;138486;-88
2023/06/29 05:51:57;;;;;;;12.40;6.10;;;;;;;18.64;100.00;100536.48;221627;1264;140042;-88
2023/06/29 05:56:58;;;;;;;11.30;5.40;;;;;;;19.33;100.00;100536.45;222444;1264;95249;-88
2023/06/29 06:02:00;;;;;;;12.00;6.20;;;;;;;20.07;100.00;100541.49;221634;1263;139297;-86
2023/06/29 06:07:00;;;;;;;15.10;6.10;;;;;;;20.69;100.00;100536.08;222136;1263;138738;-89
2023/06/29 06:12:01;;;;;;;12.80;6.00;;;;;;;21.35;100.00;100535.38;221650;1262;140135;-87
2023/06/29 06:17:09;;;;;;;9.10;5.30;;;;;;;21.89;100.00;100538.70;222184;1263;138493;-87
2023/06/29 06:22:18;;;;;;;13.70;4.90;;;;;;;22.41;100.00;100542.68;221726;1262;139930;-88
2023/06/29 06:27:18;;;;;;;12.80;5.10;;;;;;;23.00;99.45;100544.07;222472;1263;95611;-87
2023/06/29 06:32:26;;;;;;;10.80;4.40;;;;;;;23.53;97.23;100540.21;221600;1266;138798;-89
2023/06/29 06:37:27;;;;;;;13.50;4.60;;;;;;;24.09;93.89;100548.50;222415;1262;138095;-88
2023/06/29 06:42:27;;;;;;;9.00;3.90;;;;;;;24.65;90.82;100543.27;221775;1263;139746;-88
2023/06/29 06:47:48;;;;;;;8.40;4.10;;;;;;;25.00;86.85;100543.83;222189;1266;138603;-90
2023/06/29 06:52:50;;;;;;;8.50;3.20;;;;;;;25.39;85.26;100540.39;221697;1264;139883;-89
2023/06/29 06:57:50;;;;;;;11.30;3.30;;;;;;;25.92;83.92;100539.22;222225;1267;138229;-87
2023/06/29 07:02:53;;;;;;;7.70;3.20;;;;;;;26.44;80.22;100538.31;221861;1263;139152;-87
2023/06/29 07:07:54;;;;;;;9.50;3.50;;;;;;;26.77;77.54;100542.48;222233;1266;138249;-85
2023/06/29 07:12:55;;;;;;;6.00;2.40;;;;;;;27.18;74.91;100534.29;221777;1266;139461;-85
2023/06/29 07:17:56;;;;;;;4.60;2.80;;;;;;;27.49;72.42;100527.31;222143;1263;137810;-84
2023/06/29 07:22:56;;;;;;;6.10;2.20;;;;;;;27.69;69.83;100524.25;221698;1264;140528;-85
2023/06/29 07:27:57;;;;;;;7.10;2.50;;;;;;;27.64;68.55;100516.70;222345;1263;137632;-85
2023/06/29 07:32:58;;;;;;;5.40;2.10;;;;;;;28.17;68.20;100519.94;221824;1263;138488;-84
2023/06/29 07:37:58;;;;;;;7.30;2.40;;;;;;;28.58;66.33;100514.77;222235;1264;137822;-83
2023/06/29 07:42:59;;;;;;;6.80;2.10;;;;;;;28.58;63.97;100514.34;221865;1263;139376;-85
2023/06/29 07:47:59;;;;;;;9.40;2.30;;;;;;;28.85;63.16;100511.70;222285;1263;138072;-85
2023/06/29 07:53:00;;;;;;;6.50;2.30;;;;;;;29.22;62.66;100512.08;221877;1263;139280;-86
2023/06/29 07:58:00;;;;;;;7.30;2.20;;;;;;;29.70;62.94;100507.15;222211;1263;138348;-85
2023/06/29 08:03:00;;;;;;;7.00;2.30;;;;;;;30.24;61.85;100502.09;221896;1263;139956;-83
2023/06/29 08:08:01;;;;;;;7.50;2.50;;;;;;;30.48;58.76;100502.95;222275;1263;137670;-84
2023/06/29 08:13:01;;;;;;;5.80;2.70;;;;;;;30.57;58.91;100497.67;221990;1266;140455;-85
2023/06/29 08:18:02;;;;;;;5.80;2.20;;;;;;;31.31;57.57;100498.48;222243;1264;137616;-85
2023/06/29 08:23:02;;;;;;;6.70;2.30;;;;;;;31.75;54.89;100497.30;221746;1264;139195;-85
2023/06/29 08:28:03;;;;;;;5.80;2.10;;;;;;;32.26;54.76;100497.00;222435;1263;138728;-85
2023/06/29 08:33:03;;;;;;;3.90;1.70;;;;;;;32.56;52.62;100496.29;221872;1263;139687;-85
2023/06/29 08:38:04;;;;;;;4.40;2.00;;;;;;;32.75;51.90;100494.02;222168;1263;137714;-84
2023/06/29 08:43:04;;;;;;;4.40;1.80;;;;;;;32.91;50.76;100497.59;221924;1263;140211;-84
2023/06/29 08:48:06;;;;;;;6.20;2.30;;;;;;;33.35;50.24;100489.48;222471;1264;137641;-84
2023/06/29 08:53:10;;;;;;;5.50;2.20;;;;;;;33.83;47.69;100490.59;221798;1263;140642;-85
2023/06/29 08:58:11;;;;;;;6.00;2.00;;;;;;;34.02;46.73;100478.31;222248;1267;138872;-85
2023/06/29 09:03:12;;;;;;;7.30;2.50;;;;;;;34.22;45.67;100481.30;222088;1266;138663;-83
2023/06/29 09:08:12;;;;;;;5.00;2.00;;;;;;;34.35;45.96;100480.63;222206;1263;137625;-83
2023/06/29 09:13:13;;;;;;;5.00;2.30;;;;;;;34.53;44.52;100476.84;221964;1263;139506;-87
2023/06/29 09:18:14;;;;;;;6.20;2.20;;;;;;;34.35;43.24;100472.94;222189;1263;138350;-83
2023/06/29 09:23:15;;;;;;;5.60;2.20;;;;;;;34.26;44.10;100469.92;221996;1263;141133;-85
2023/06/29 09:28:17;;;;;;;3.70;2.00;;;;;;;34.72;44.06;100469.27;222396;1266;138353;-84
2023/06/29 09:33:18;;;;;;;6.00;1.90;;;;;;;35.20;44.08;100465.48;221870;1266;139033;-83
2023/06/29 09:38:20;;;;;;;4.40;1.90;;;;;;;35.54;42.58;100465.03;222384;1263;137864;-85
2023/06/29 09:43:25;;;;;;;5.70;2.10;;;;;;;35.70;42.14;100461.89;221945;1263;139516;-82
2023/06/29 09:48:26;;;;;;;5.00;1.90;;;;;;;35.59;40.22;100455.10;222452;1263;137743;-85
2023/06/29 09:53:32;;;;;;;4.80;2.60;;;;;;;35.32;40.05;100451.70;221804;1263;143949;-84
2023/06/29 09:58:34;;;;;;;5.10;2.30;;;;;;;35.45;40.42;100444.79;222178;1263;137821;-84
2023/06/29 10:03:34;;;;;;;4.90;1.90;;;;;;;35.32;40.30;100439.63;222163;1262;139516;-85
2023/06/29 10:08:36;;;;;;;8.60;2.50;;;;;;;35.33;39.99;100442.21;222469;1263;137416;-84
2023/06/29 10:13:49;;;;;;;4.70;1.70;;;;;;;35.40;39.33;100438.84;221688;1263;141410;-86
2023/06/29 10:18:54;;;;;;;4.10;1.70;;;;;;;35.24;37.35;100431.13;222158;1263;137653;-88
2023/06/29 10:23:56;;;;;;;7.80;2.30;;;;;;;34.89;36.65;100432.70;222028;1263;210426;-85
2023/06/29 10:28:57;;;;;;;6.70;2.40;;;;;;;34.80;38.59;100429.14;221930;1266;140527;-81
2023/06/29 10:34:00;;;;;;;5.50;2.10;;;;;;;34.69;38.72;100430.30;222554;1263;137139;-84
2023/06/29 10:39:00;;;;;;;6.00;2.50;;;;;;;35.09;39.14;100424.86;222039;1262;196216;-80
2023/06/29 10:44:05;;;;;;;4.60;2.10;;;;;;;35.21;37.92;100422.26;222328;1263;138888;-84
2023/06/29 10:49:08;;;;;;;5.00;2.00;;;;;;;35.30;38.00;100413.38;221902;1266;141820;-83
2023/06/29 10:54:09;;;;;;;5.40;2.00;;;;;;;35.52;37.23;100414.41;222461;1262;138636;-85
2023/06/29 10:59:10;;;;;;;5.60;1.80;;;;;;;35.43;36.54;100410.67;221932;1263;139081;-85
2023/06/29 11:04:11;;;;;;;5.50;2.10;;;;;;;35.61;35.96;100408.36;222452;1263;137756;-83
2023/06/29 11:09:15;;;;;;;3.20;1.60;;;;;;;35.66;35.48;100408.05;221901;1263;139970;-84
2023/06/29 11:14:17;;;;;;;5.10;2.00;;;;;;;35.74;35.71;100405.63;222277;1267;137765;-84
2023/06/29 11:19:18;;;;;;;5.40;2.10;;;;;;;35.87;36.82;100404.97;221986;1266;142417;-81
2023/06/29 11:24:21;;;;;;;4.80;2.20;;;;;;;35.81;35.83;100402.41;222345;1267;137740;-82
2023/06/29 11:29:21;;;;;;;5.30;2.00;;;;;;;35.88;36.87;100394.02;221778;1266;139548;-84
2023/06/29 11:34:22;;;;;;;6.90;2.00;;;;;;;36.32;36.34;100389.52;222278;1267;138671;-83
2023/06/29 11:39:23;;;;;;;5.70;2.40;;;;;;;36.43;35.94;100386.77;221918;1263;139482;-86
2023/06/29 11:44:25;;;;;;;4.50;2.20;;;;;;;36.51;33.59;100383.81;222174;1263;137815;-89
2023/06/29 11:49:26;;;;;;;6.20;2.20;;;;;;;36.22;33.26;100379.64;222330;1263;137801;-87
2023/06/29 11:54:29;;;;;;;9.80;2.70;;;;;;;35.84;33.55;100376.08;222437;1266;137628;-92
2023/06/29 11:59:31;;;;;;;8.60;3.30;;;;;;;35.53;32.40;100375.70;221822;1263;138787;-87
2023/06/29 12:04:32;;;;;;;11.20;3.70;;;;;;;35.19;33.91;100367.98;222264;1263;137851;-88
2023/06/29 12:09:33;;;;;;;5.20;1.90;;;;;;;35.32;34.51;100362.08;221697;1262;140379;-84
2023/06/29 12:14:33;;;;;;;3.90;1.80;;;;;;;35.45;35.24;100363.19;222266;1263;137744;-86
2023/06/29 12:19:36;;;;;;;3.40;1.80;;;;;;;35.57;34.86;100357.52;221824;1263;140296;-86
2023/06/29 12:24:37;;;;;;;5.70;1.70;;;;;;;35.63;34.51;100354.70;222208;1263;138098;-88
2023/06/29 12:29:37;;;;;;;4.90;1.90;;;;;;;35.43;33.22;100350.94;221915;1264;139197;-85
2023/06/29 12:34:38;;;;;;;6.20;2.00;;;;;;;35.09;34.96;100348.61;222544;1262;138777;-85
2023/06/29 12:39:38;;;;;;;3.40;1.50;;;;;;;35.06;35.33;100340.23;221868;1266;138642;-86
2023/06/29 12:44:39;;;;;;;4.50;2.10;;;;;;;35.14;34.86;100337.92;222199;1262;137614;-84
2023/06/29 12:49:39;;;;;;;5.30;2.00;;;;;;;35.08;35.12;100325.79;221952;1263;142842;-84
2023/06/29 12:54:40;;;;;;;5.70;1.90;;;;;;;34.97;35.08;100329.88;222415;1263;138627;-81
2023/06/29 12:59:41;;;;;;;3.60;1.80;;;;;;;34.70;35.87;100321.59;221986;1263;140163;-83
2023/06/29 13:04:41;;;;;;;4.30;1.80;;;;;;;34.15;34.97;100321.76;222310;1266;137913;-84
2023/06/29 13:09:42;;;;;;;6.10;1.60;;;;;;;33.85;36.73;100312.79;221966;1266;140697;-83
2023/06/29 13:14:43;;;;;;;2.70;1.30;;;;;;;33.49;36.21;100312.72;222470;1263;137323;-85
2023/06/29 13:19:46;;;;;;;5.20;2.40;;;;;;;33.15;35.99;100311.02;221985;1263;140910;-83
2023/06/29 13:24:46;;;;;;;4.20;1.80;;;;;;;32.62;35.70;100311.25;222349;1263;138314;-84
2023/06/29 13:29:47;;;;;;;3.20;1.50;;;;;;;32.15;36.13;100302.08;222003;1263;139934;-84
2023/06/29 13:34:47;;;;;;;4.80;1.70;;;;;;;31.92;36.87;100299.67;222492;1263;137771;-85
2023/06/29 13:39:49;;;;;;;3.20;1.50;;;;;;;31.79;37.32;100297.70;222033;1263;139796;-84
2023/06/29 13:44:49;;;;;;;4.30;1.70;;;;;;;31.86;37.46;100290.05;222448;1263;137857;-85
2023/06/29 13:49:50;;;;;;;5.10;1.70;;;;;;;31.90;36.18;100285.27;222006;1263;140260;-84
2023/06/29 13:54:51;;;;;;;4.80;1.60;;;;;;;31.85;35.80;100284.30;222476;1263;138138;-86
2023/06/29 13:59:51;;;;;;;5.00;1.90;;;;;;;31.59;35.14;100281.27;221597;1263;139153;-83
2023/06/29 14:04:51;;;;;;;4.40;1.80;;;;;;;31.41;37.46;100276.17;222405;1266;137894;-85
2023/06/29 14:09:52;;;;;;;4.60;1.70;;;;;;;31.52;37.50;100275.92;221829;1263;141699;-86
2023/06/29 14:14:52;;;;;;;4.70;1.90;;;;;;;31.50;38.57;100270.19;222450;1263;96566;-86
2023/06/29 14:19:53;;;;;;;3.60;1.50;;;;;;;31.77;37.69;100263.27;221987;1263;139235;-85
2023/06/29 14:24:53;;;;;;;4.20;1.40;;;;;;;31.74;36.00;100261.48;222497;1263;138741;-85
2023/06/29 14:29:54;;;;;;;4.80;1.60;;;;;;;31.46;35.31;100252.73;221825;1263;139198;-87
2023/06/29 14:34:54;;;;;;;5.80;1.80;;;;;;;31.20;36.30;100244.20;222210;1263;138301;-85
2023/06/29 14:39:54;;;;;;;3.20;1.40;;;;;;;31.07;35.51;100240.10;221903;1262;139254;-84
2023/06/29 14:44:55;;;;;;;3.30;1.70;;;;;;;31.06;36.53;100229.95;222569;1263;96927;-90
2023/06/29 14:49:55;;;;;;;2.70;1.60;;;;;;;31.06;35.63;100230.36;221637;1266;140339;-87
2023/06/29 14:54:55;;;;;;;4.60;1.70;;;;;;;30.97;35.31;100218.11;222383;1263;139494;-86
2023/06/29 14:59:56;;;;;;;5.20;1.60;;;;;;;30.61;36.36;100218.48;221863;1263;139533;-88
2023/06/29 15:04:56;;;;;;;7.30;2.00;;;;;;;30.67;36.51;100213.85;222332;1267;137640;-86
2023/06/29 15:09:58;;;;;;;3.80;1.70;;;;;;;30.47;37.10;100212.46;221802;1263;139004;-87
2023/06/29 15:15:01;;;;;;;6.30;2.20;;;;;;;30.33;37.82;100206.02;222678;1263;96583;-90
2023/06/29 15:20:02;;;;;;;3.70;1.60;;;;;;;30.27;37.18;100199.20;221793;1263;141641;-90
2023/06/29 15:25:03;;;;;;;5.50;2.00;;;;;;;30.10;36.53;100196.46;222348;1263;137651;-87
2023/06/29 15:30:06;;;;;;;3.80;2.00;;;;;;;29.99;37.51;100193.11;221941;1263;139371;-86
2023/06/29 15:35:07;;;;;;;5.30;1.60;;;;;;;29.86;37.73;100185.04;222283;1263;138800;-84
2023/06/29 15:40:07;;;;;;;3.10;1.40;;;;;;;29.61;38.02;100190.58;221950;1263;139278;-90
2023/06/29 15:45:08;;;;;;;4.10;1.70;;;;;;;29.20;36.11;100187.50;222477;1263;96583;-85
2023/06/29 15:50:09;;;;;;;3.70;1.60;;;;;;;28.87;37.19;100176.02;221896;1263;139276;-93
2023/06/29 15:55:09;;;;;;;2.70;1.70;;;;;;;28.63;37.55;100173.45;222445;1263;139068;-91
2023/06/29 16:00:10;;;;;;;4.60;1.80;;;;;;;28.43;37.95;100176.89;221708;1263;138529;-88
2023/06/29 16:05:11;;;;;;;6.90;2.20;;;;;;;28.13;37.61;100174.39;222255;1266;137588;-88
2023/06/29 16:10:11;;;;;;;4.40;1.70;;;;;;;27.92;38.55;100164.54;221584;1263;139243;-88
2023/06/29 16:15:11;;;;;;;6.80;2.10;;;;;;;27.70;39.33;100164.11;222459;1263;96517;-84
2023/06/29 16:20:12;;;;;;;5.50;2.00;;;;;;;27.45;39.79;100162.02;221894;1263;140189;-88
2023/06/29 16:25:12;;;;;;;4.90;1.70;;;;;;;27.26;40.57;100160.33;222432;1263;137643;-87
2023/06/29 16:30:13;;;;;;;5.90;2.20;;;;;;;27.09;40.62;100157.73;221944;1263;140928;-84
2023/06/29 16:35:13;;;;;;;3.20;1.70;;;;;;;26.90;41.49;100157.71;222404;1263;137697;-85
2023/06/29 16:40:14;;;;;;;4.50;1.60;;;;;;;26.66;41.24;100154.67;221810;1263;141096;-83
2023/06/29 16:45:14;;;;;;;5.50;2.00;;;;;;;26.52;41.93;100154.92;222465;1262;96482;-85
2023/06/29 16:50:15;;;;;;;6.00;2.50;;;;;;;26.33;41.83;100145.25;221903;1263;140778;-85
2023/06/29 16:55:15;;;;;;;4.20;1.70;;;;;;;26.11;42.71;100145.23;222349;1263;137567;-83
2023/06/29 17:00:16;;;;;;;6.00;2.10;;;;;;;25.92;43.46;100140.81;221964;1263;139242;-85
2023/06/29 17:05:17;;;;;;;4.50;1.90;;;;;;;25.74;43.79;100138.91;222233;1263;137902;-85
2023/06/29 17:10:17;;;;;;;7.10;2.00;;;;;;;25.56;43.90;100140.80;221909;1263;140243;-86
2023/06/29 17:15:18;;;;;;;7.10;2.80;;;;;;;25.43;43.94;100139.34;222401;1263;97144;-86
2023/06/29 17:20:21;;;;;;;5.00;2.00;;;;;;;25.28;44.45;100134.75;221916;1263;139311;-84
2023/06/29 17:25:21;;;;;;;13.30;2.80;;;;;;;25.17;44.53;100132.41;222370;1264;137479;-85
2023/06/29 17:30:22;;;;;;;4.10;2.00;;;;;;;24.99;45.07;100128.98;221903;1263;139592;-85
2023/06/29 17:35:22;;;;;;;5.30;2.10;;;;;;;24.78;45.72;100132.09;222310;1263;139179;-85
2023/06/29 17:40:23;;;;;;;6.10;2.20;;;;;;;24.62;46.81;100123.16;221956;1263;141291;-85
2023/06/29 17:45:25;;;;;;;5.50;2.90;;;;;;;24.45;48.02;100120.31;222437;1263;96583;-86
2023/06/29 17:50:26;;;;;;;3.90;2.30;;;;;;;24.32;48.59;100116.64;221786;1263;139769;-84
2023/06/29 17:55:26;;;;;;;4.90;2.50;;;;;;;24.17;48.96;100115.48;222296;1267;137442;-85
2023/06/29 18:00:26;;;;;;;4.70;2.60;;;;;;;24.04;49.56;100111.95;221883;1266;139935;-85
2023/06/29 18:05:27;;;;;;;4.20;2.10;;;;;;;23.95;50.34;100113.27;222294;1263;137996;-85
2023/06/29 18:10:27;;;;;;;6.40;2.60;;;;;;;23.84;50.80;100113.14;221844;1263;139287;-85
2023/06/29 18:15:28;;;;;;;6.60;2.50;;;;;;;23.72;50.49;100114.77;222536;1263;96580;-85
2023/06/29 18:20:28;;;;;;;4.80;2.20;;;;;;;23.61;51.26;100111.29;221892;1263;139732;-85
2023/06/29 18:25:29;;;;;;;4.80;2.00;;;;;;;23.45;52.07;100111.73;222202;1263;137692;-85
2023/06/29 18:30:29;;;;;;;5.60;2.60;;;;;;;23.33;52.79;100110.29;221927;1268;139214;-84
2023/06/29 18:35:30;;;;;;;5.60;2.30;;;;;;;23.21;53.19;100109.31;222426;1266;139130;-85
2023/06/29 18:40:30;;;;;;;5.30;2.10;;;;;;;23.10;54.24;100105.52;221851;1266;139497;-85
2023/06/29 18:45:31;;;;;;;6.60;2.70;;;;;;;23.01;54.88;100099.39;222473;1263;108967;-85
2023/06/29 18:50:31;;;;;;;5.70;2.80;;;;;;;22.89;55.75;100099.83;221974;1263;140661;-85
2023/06/29 18:55:33;;;;;;;5.80;2.50;;;;;;;22.75;56.88;100101.66;222422;1263;137473;-85
2023/06/29 19:00:35;;;;;;;4.20;2.50;;;;;;;22.57;58.44;100102.38;221879;1266;139729;-85
2023/06/29 19:05:36;;;;;;;6.50;2.80;;;;;;;22.37;59.19;100102.94;222414;1266;138751;-85
2023/06/29 19:10:37;;;;;;;7.40;2.90;;;;;;;22.22;60.30;100105.92;221983;1263;139840;-84
2023/06/29 19:15:40;;;;;;;4.30;2.50;;;;;;;22.04;61.15;100108.11;222581;1263;96593;-84
2023/06/29 19:20:40;;;;;;;7.10;2.50;;;;;;;21.85;62.09;100110.96;221841;1263;138722;-86
2023/06/29 19:25:41;;;;;;;5.90;2.70;;;;;;;21.67;62.48;100116.59;222316;1263;137604;-84
2023/06/29 19:30:42;;;;;;;9.30;3.60;;;;;;;21.50;63.50;100118.86;221860;1263;138819;-85
2023/06/29 19:35:43;;;;;;;4.20;2.70;;;;;;;21.31;64.88;100119.89;222322;1263;137827;-85
2023/06/29 19:40:43;;;;;;;8.70;3.30;;;;;;;21.14;65.61;100126.30;221887;1266;141899;-86
2023/06/29 19:45:45;;;;;;;8.20;3.40;;;;;;;20.95;66.95;100126.65;222552;1266;96636;-84
2023/06/29 19:50:45;;;;;;;9.40;3.40;;;;;;;20.77;68.29;100123.09;221888;1264;139134;-84
2023/06/29 19:55:45;;;;;;;10.10;4.00;;;;;;;20.56;68.96;100123.88;222468;1263;137467;-83
2023/06/29 20:00:46;;;;;;;8.30;3.70;;;;;;;20.38;70.37;100125.06;221943;1263;139831;-82
2023/06/29 20:05:47;;;;;;;8.50;4.50;;;;;;;20.22;71.13;100133.66;222296;1266;138148;-84
2023/06/29 20:10:48;;;;;;;10.00;4.90;;;;;;;20.09;72.21;100133.74;221830;1263;141036;-86
2023/06/29 20:15:49;;;;;;;9.60;4.80;;;;;;;19.93;72.84;100132.47;222339;1263;96876;-85
2023/06/29 20:20:49;;;;;;;11.10;5.30;;;;;;;19.79;73.29;100135.81;221834;1263;139937;-83
2023/06/29 20:25:50;;;;;;;8.80;4.00;;;;;;;19.63;73.91;100134.89;222432;1263;138446;-85
2023/06/29 20:30:50;;;;;;;10.60;4.50;;;;;;;19.49;74.56;100128.20;221710;1263;139706;-86
2023/06/29 20:35:50;;;;;;;8.70;4.90;;;;;;;19.36;75.13;100129.01;222360;1263;138762;-86
2023/06/29 20:40:51;;;;;;;9.30;4.10;;;;;;;19.22;76.00;100131.61;221859;1266;140115;-86
2023/06/29 20:45:52;;;;;;;9.40;4.40;;;;;;;19.10;76.75;100131.23;222551;1266;96592;-86
2023/06/29 20:50:53;;;;;;;12.10;4.20;;;;;;;18.96;77.23;100129.16;221912;1267;140479;-85
2023/06/29 20:55:53;;;;;;;23.60;5.10;;;;;;;18.83;77.67;100126.55;222384;1264;138396;-83
2023/06/29 21:00:54;;;;;;;7.70;4.40;;;;;;;18.73;78.46;100125.58;221907;1266;139788;-85
2023/06/29 21:05:54;;;;;;;9.20;5.10;;;;;;;18.61;78.79;100125.41;222043;1266;138602;-84
2023/06/29 21:10:55;;;;;;;8.40;4.50;;;;;;;18.50;79.46;100125.06;222054;1263;139946;-83
2023/06/29 21:15:56;;;;;;;9.30;5.40;;;;;;;18.39;79.86;100122.10;222291;1266;138379;-83
2023/06/29 21:20:56;;;;;;;9.80;4.20;;;;;;;18.26;80.05;100123.81;222020;1263;141182;-82
2023/06/29 21:25:57;;;;;;;12.00;5.10;;;;;;;18.15;80.19;100130.54;222467;1266;139649;-84
2023/06/29 21:30:59;;;;;;;8.40;4.70;;;;;;;18.10;80.47;100129.86;221543;1263;141259;-84
2023/06/29 21:36:00;;;;;;;10.60;4.00;;;;;;;18.04;81.01;100126.59;222352;1266;139399;-85
2023/06/29 21:41:00;;;;;;;7.60;4.20;;;;;;;17.90;80.91;100122.63;221842;1263;142369;-86
2023/06/29 21:46:02;;;;;;;7.70;4.30;;;;;;;17.84;81.33;100122.20;222340;1267;140313;-86
2023/06/29 21:51:02;;;;;;;10.60;4.60;;;;;;;17.76;82.25;100125.27;221981;1266;140232;-85
2023/06/29 21:56:04;;;;;;;10.20;4.50;;;;;;;17.67;83.31;100123.89;222416;1266;138501;-85
2023/06/29 22:01:04;;;;;;;8.90;4.20;;;;;;;17.59;83.70;100118.98;221887;1266;140982;-85
2023/06/29 22:06:05;;;;;;;11.00;5.00;;;;;;;17.52;83.81;100117.55;222390;1266;138777;-87
2023/06/29 22:11:05;;;;;;;8.50;4.50;;;;;;;17.45;85.12;100115.61;221727;1264;142330;-85
2023/06/29 22:16:05;;;;;;;11.10;5.00;;;;;;;17.36;85.46;100116.91;222246;1264;138330;-84
2023/06/29 22:21:06;;;;;;;9.80;5.20;;;;;;;17.27;85.67;100112.98;221965;1266;142695;-84
2023/06/29 22:26:07;;;;;;;8.90;4.90;;;;;;;17.20;86.04;100109.37;222345;1264;138636;-86
2023/06/29 22:31:07;;;;;;;8.00;4.50;;;;;;;17.16;87.22;100103.52;221897;1264;140557;-86
2023/06/29 22:36:08;;;;;;;9.90;5.10;;;;;;;17.10;88.11;100108.54;222195;1264;138329;-85
2023/06/29 22:41:09;;;;;;;10.70;5.10;;;;;;;17.02;88.49;100106.34;221676;1264;287611;-85
2023/06/29 22:46:09;;;;;;;9.90;4.60;;;;;;;16.95;88.82;100104.73;222276;1266;139358;-85
2023/06/29 22:51:12;;;;;;;8.80;4.50;;;;;;;16.89;89.04;100106.05;222048;1266;139783;-83
2023/06/29 22:56:12;;;;;;;12.80;5.10;;;;;;;16.84;89.08;100108.93;222531;1263;138307;-85
2023/06/29 23:01:14;;;;;;;9.30;5.00;;;;;;;16.82;90.16;100106.58;221916;1264;140740;-85
2023/06/29 23:06:15;;;;;;;8.70;5.20;;;;;;;16.80;90.36;100099.23;222333;1266;138486;-84
2023/06/29 23:11:15;;;;;;;9.00;4.80;;;;;;;16.81;91.19;100096.28;221893;1264;141537;-85
2023/06/29 23:16:16;;;;;;;9.20;5.10;;;;;;;16.81;91.48;100090.55;222251;1264;140570;-85
2023/06/29 23:21:16;;;;;;;7.60;4.70;;;;;;;16.82;91.70;100090.45;222027;1264;142968;-83
2023/06/29 23:26:19;;;;;;;8.60;4.70;;;;;;;16.82;91.28;100094.02;222250;1266;139163;-85
2023/06/29 23:31:20;;;;;;;7.80;5.00;;;;;;;16.83;91.78;100088.28;221907;1266;139183;-85
2023/06/29 23:36:21;;;;;;;7.80;4.60;;;;;;;16.86;92.38;100086.41;222189;1267;138418;-85
2023/06/29 23:41:30;;;;;;;8.10;4.70;;;;;;;16.90;93.11;100085.20;221721;1264;141606;-84